sensor_id;sensor_type;location;lat;lon;timestamp;temperature;humidity
41644;DHT22;44236;48.098;11.582;2024-03-08T00:01:09;19.30;40.60
41644;DHT22;44236;48.098;11.582;2024-03-08T00:03:35;19.30;40.60
41644;DHT22;44236;48.098;11.582;2024-03-08T00:06:01;19.20;40.50
41644;DHT22;44236;48.098;11.582;2024-03-08T00:08:27;19.20;40.50
41644;DHT22;44236;48.098;11.582;2024-03-08T00:10:53;19.20;40.60
41644;DHT22;44236;48.098;11.582;2024-03-08T00:13:19;19.20;40.50
41644;DHT22;44236;48.098;11.582;2024-03-08T00:15:45;19.20;40.70
41644;DHT22;44236;48.098;11.582;2024-03-08T00:18:10;19.20;40.60
41644;DHT22;44236;48.098;11.582;2024-03-08T00:20:36;19.10;40.70
41644;DHT22;44236;48.098;11.582;2024-03-08T00:23:02;19.10;40.70
41644;DHT22;44236;48.098;11.582;2024-03-08T00:25:28;19.10;40.60
41644;DHT22;44236;48.098;11.582;2024-03-08T00:27:53;19.10;40.50
41644;DHT22;44236;48.098;11.582;2024-03-08T00:30:22;19.10;40.60
41644;DHT22;44236;48.098;11.582;2024-03-08T00:32:48;19.10;40.50
41644;DHT22;44236;48.098;11.582;2024-03-08T00:35:14;19.10;40.40
41644;DHT22;44236;48.098;11.582;2024-03-08T00:37:40;19.00;40.40
41644;DHT22;44236;48.098;11.582;2024-03-08T00:40:12;19.00;40.60
41644;DHT22;44236;48.098;11.582;2024-03-08T00:42:38;19.00;40.60
41644;DHT22;44236;48.098;11.582;2024-03-08T00:45:07;19.00;40.70
41644;DHT22;44236;48.098;11.582;2024-03-08T00:47:33;18.90;40.60
41644;DHT22;44236;48.098;11.582;2024-03-08T00:49:59;18.90;40.60
41644;DHT22;44236;48.098;11.582;2024-03-08T00:52:25;18.90;40.70
41644;DHT22;44236;48.098;11.582;2024-03-08T00:54:50;18.90;40.70
41644;DHT22;44236;48.098;11.582;2024-03-08T00:57:16;18.90;40.60
41644;DHT22;44236;48.098;11.582;2024-03-08T00:59:41;18.90;40.70
41644;DHT22;44236;48.098;11.582;2024-03-08T01:02:07;18.90;40.60
41644;DHT22;44236;48.098;11.582;2024-03-08T01:04:36;18.90;40.60
41644;DHT22;44236;48.098;11.582;2024-03-08T01:07:02;18.80;40.60
41644;DHT22;44236;48.098;11.582;2024-03-08T01:09:28;18.80;40.60
41644;DHT22;44236;48.098;11.582;2024-03-08T01:11:54;18.80;40.60
41644;DHT22;44236;48.098;11.582;2024-03-08T01:14:21;18.80;40.60
41644;DHT22;44236;48.098;11.582;2024-03-08T01:16:55;18.80;40.50
41644;DHT22;44236;48.098;11.582;2024-03-08T01:19:21;18.80;40.90
41644;DHT22;44236;48.098;11.582;2024-03-08T01:21:46;18.70;40.40
41644;DHT22;44236;48.098;11.582;2024-03-08T01:24:12;18.70;40.40
41644;DHT22;44236;48.098;11.582;2024-03-08T01:26:37;18.70;40.50
41644;DHT22;44236;48.098;11.582;2024-03-08T01:29:04;18.70;40.60
41644;DHT22;44236;48.098;11.582;2024-03-08T01:31:30;18.70;40.50
41644;DHT22;44236;48.098;11.582;2024-03-08T01:33:56;18.70;40.60
41644;DHT22;44236;48.098;11.582;2024-03-08T01:36:22;18.70;40.60
41644;DHT22;44236;48.098;11.582;2024-03-08T01:38:48;18.70;40.70
41644;DHT22;44236;48.098;11.582;2024-03-08T01:41:14;18.70;40.70
41644;DHT22;44236;48.098;11.582;2024-03-08T01:43:41;18.60;40.60
41644;DHT22;44236;48.098;11.582;2024-03-08T01:46:07;18.60;40.60
41644;DHT22;44236;48.098;11.582;2024-03-08T01:48:34;18.60;40.70
41644;DHT22;44236;48.098;11.582;2024-03-08T01:51:00;18.60;40.60
41644;DHT22;44236;48.098;11.582;2024-03-08T01:53:27;18.60;40.70
41644;DHT22;44236;48.098;11.582;2024-03-08T01:55:56;18.60;40.60
41644;DHT22;44236;48.098;11.582;2024-03-08T01:58:23;18.60;40.70
41644;DHT22;44236;48.098;11.582;2024-03-08T02:00:49;18.60;40.70
41644;DHT22;44236;48.098;11.582;2024-03-08T02:03:15;18.60;40.60
41644;DHT22;44236;48.098;11.582;2024-03-08T02:05:41;18.50;40.50
41644;DHT22;44236;48.098;11.582;2024-03-08T02:08:08;18.60;40.60
41644;DHT22;44236;48.098;11.582;2024-03-08T02:10:38;18.60;40.50
41644;DHT22;44236;48.098;11.582;2024-03-08T02:13:04;18.50;40.60
41644;DHT22;44236;48.098;11.582;2024-03-08T02:15:56;18.60;40.60
41644;DHT22;44236;48.098;11.582;2024-03-08T02:18:22;18.50;40.70
41644;DHT22;44236;48.098;11.582;2024-03-08T02:20:58;18.50;40.30
41644;DHT22;44236;48.098;11.582;2024-03-08T02:23:25;18.50;40.60
41644;DHT22;44236;48.098;11.582;2024-03-08T02:25:52;18.50;40.50
41644;DHT22;44236;48.098;11.582;2024-03-08T02:28:19;18.50;40.50
41644;DHT22;44236;48.098;11.582;2024-03-08T02:30:46;18.50;40.60
41644;DHT22;44236;48.098;11.582;2024-03-08T02:33:17;18.50;40.70
41644;DHT22;44236;48.098;11.582;2024-03-08T02:35:45;18.50;40.60
41644;DHT22;44236;48.098;11.582;2024-03-08T02:38:19;18.50;40.60
41644;DHT22;44236;48.098;11.582;2024-03-08T02:40:46;18.50;40.70
41644;DHT22;44236;48.098;11.582;2024-03-08T02:43:13;18.50;40.70
41644;DHT22;44236;48.098;11.582;2024-03-08T02:45:43;18.50;40.70
41644;DHT22;44236;48.098;11.582;2024-03-08T02:48:09;18.50;40.80
41644;DHT22;44236;48.098;11.582;2024-03-08T02:50:35;18.50;40.80
41644;DHT22;44236;48.098;11.582;2024-03-08T02:53:02;18.50;40.70
41644;DHT22;44236;48.098;11.582;2024-03-08T02:55:27;18.50;40.80
41644;DHT22;44236;48.098;11.582;2024-03-08T02:57:53;18.50;40.80
41644;DHT22;44236;48.098;11.582;2024-03-08T03:00:22;18.50;40.70
41644;DHT22;44236;48.098;11.582;2024-03-08T03:02:51;18.50;40.80
41644;DHT22;44236;48.098;11.582;2024-03-08T03:05:20;18.50;40.80
41644;DHT22;44236;48.098;11.582;2024-03-08T03:07:46;18.50;40.80
41644;DHT22;44236;48.098;11.582;2024-03-08T03:10:13;18.40;40.70
41644;DHT22;44236;48.098;11.582;2024-03-08T03:12:42;18.40;40.70
41644;DHT22;44236;48.098;11.582;2024-03-08T03:15:08;18.40;40.70
41644;DHT22;44236;48.098;11.582;2024-03-08T03:17:34;18.40;40.70
41644;DHT22;44236;48.098;11.582;2024-03-08T03:19:59;18.40;40.70
41644;DHT22;44236;48.098;11.582;2024-03-08T03:22:30;18.40;40.70
41644;DHT22;44236;48.098;11.582;2024-03-08T03:24:55;18.40;40.70
41644;DHT22;44236;48.098;11.582;2024-03-08T03:27:23;18.40;40.80
41644;DHT22;44236;48.098;11.582;2024-03-08T03:29:50;18.40;40.80
41644;DHT22;44236;48.098;11.582;2024-03-08T03:32:17;18.40;40.70
41644;DHT22;44236;48.098;11.582;2024-03-08T03:34:44;18.40;40.70
41644;DHT22;44236;48.098;11.582;2024-03-08T03:37:10;18.40;40.80
41644;DHT22;44236;48.098;11.582;2024-03-08T03:39:39;18.40;40.80
41644;DHT22;44236;48.098;11.582;2024-03-08T03:42:18;18.40;40.70
41644;DHT22;44236;48.098;11.582;2024-03-08T03:44:45;18.40;40.70
41644;DHT22;44236;48.098;11.582;2024-03-08T03:47:11;18.40;40.80
41644;DHT22;44236;48.098;11.582;2024-03-08T03:49:36;18.40;40.80
41644;DHT22;44236;48.098;11.582;2024-03-08T03:52:02;18.40;40.80
41644;DHT22;44236;48.098;11.582;2024-03-08T03:54:30;18.40;40.80
41644;DHT22;44236;48.098;11.582;2024-03-08T03:56:56;18.30;40.50
41644;DHT22;44236;48.098;11.582;2024-03-08T03:59:21;18.30;40.70
41644;DHT22;44236;48.098;11.582;2024-03-08T04:01:47;18.30;40.70
41644;DHT22;44236;48.098;11.582;2024-03-08T04:04:15;18.30;40.60
41644;DHT22;44236;48.098;11.582;2024-03-08T04:06:40;18.40;40.70
41644;DHT22;44236;48.098;11.582;2024-03-08T04:09:06;18.30;40.50
41644;DHT22;44236;48.098;11.582;2024-03-08T04:11:32;18.30;40.60
41644;DHT22;44236;48.098;11.582;2024-03-08T04:13:58;18.30;40.60
41644;DHT22;44236;48.098;11.582;2024-03-08T04:16:23;18.30;40.60
41644;DHT22;44236;48.098;11.582;2024-03-08T04:18:50;18.30;40.50
41644;DHT22;44236;48.098;11.582;2024-03-08T04:21:15;18.30;39.90
41644;DHT22;44236;48.098;11.582;2024-03-08T04:23:41;18.30;40.40
41644;DHT22;44236;48.098;11.582;2024-03-08T04:26:06;18.30;40.30
41644;DHT22;44236;48.098;11.582;2024-03-08T04:28:34;18.30;40.60
41644;DHT22;44236;48.098;11.582;2024-03-08T04:31:00;18.30;40.40
41644;DHT22;44236;48.098;11.582;2024-03-08T04:33:28;18.30;40.40
41644;DHT22;44236;48.098;11.582;2024-03-08T04:35:54;18.30;40.30
41644;DHT22;44236;48.098;11.582;2024-03-08T04:38:20;18.30;40.10
41644;DHT22;44236;48.098;11.582;2024-03-08T04:40:46;18.30;39.90
41644;DHT22;44236;48.098;11.582;2024-03-08T04:43:12;18.30;39.90
41644;DHT22;44236;48.098;11.582;2024-03-08T04:45:37;18.30;39.90
41644;DHT22;44236;48.098;11.582;2024-03-08T04:48:03;18.30;39.70
41644;DHT22;44236;48.098;11.582;2024-03-08T04:50:29;18.30;39.70
41644;DHT22;44236;48.098;11.582;2024-03-08T04:52:55;18.30;39.80
41644;DHT22;44236;48.098;11.582;2024-03-08T04:55:21;18.30;39.80
41644;DHT22;44236;48.098;11.582;2024-03-08T04:57:47;18.30;39.90
41644;DHT22;44236;48.098;11.582;2024-03-08T05:00:14;18.30;39.80
41644;DHT22;44236;48.098;11.582;2024-03-08T05:02:41;18.30;39.80
41644;DHT22;44236;48.098;11.582;2024-03-08T05:05:09;18.40;39.80
41644;DHT22;44236;48.098;11.582;2024-03-08T05:07:40;18.40;39.80
41644;DHT22;44236;48.098;11.582;2024-03-08T05:10:07;18.40;39.90
41644;DHT22;44236;48.098;11.582;2024-03-08T05:12:33;18.40;39.80
41644;DHT22;44236;48.098;11.582;2024-03-08T05:14:59;18.40;39.70
41644;DHT22;44236;48.098;11.582;2024-03-08T05:17:25;18.40;39.80
41644;DHT22;44236;48.098;11.582;2024-03-08T05:19:51;18.40;39.80
41644;DHT22;44236;48.098;11.582;2024-03-08T05:22:17;18.40;39.40
41644;DHT22;44236;48.098;11.582;2024-03-08T05:24:43;18.40;39.60
41644;DHT22;44236;48.098;11.582;2024-03-08T05:27:09;18.40;39.30
41644;DHT22;44236;48.098;11.582;2024-03-08T05:29:35;18.40;39.30
41644;DHT22;44236;48.098;11.582;2024-03-08T05:32:00;18.40;39.40
41644;DHT22;44236;48.098;11.582;2024-03-08T05:34:27;18.40;39.10
41644;DHT22;44236;48.098;11.582;2024-03-08T05:36:54;18.50;39.00
41644;DHT22;44236;48.098;11.582;2024-03-08T05:39:20;18.40;38.90
41644;DHT22;44236;48.098;11.582;2024-03-08T05:41:46;18.40;38.50
41644;DHT22;44236;48.098;11.582;2024-03-08T05:44:12;18.60;38.80
41644;DHT22;44236;48.098;11.582;2024-03-08T05:46:39;18.50;38.30
41644;DHT22;44236;48.098;11.582;2024-03-08T05:49:05;18.50;37.90
41644;DHT22;44236;48.098;11.582;2024-03-08T05:51:40;18.50;38.40
41644;DHT22;44236;48.098;11.582;2024-03-08T05:54:11;18.50;38.00
41644;DHT22;44236;48.098;11.582;2024-03-08T05:56:38;18.50;39.10
41644;DHT22;44236;48.098;11.582;2024-03-08T05:59:04;18.50;38.60
41644;DHT22;44236;48.098;11.582;2024-03-08T06:01:29;18.50;37.70
41644;DHT22;44236;48.098;11.582;2024-03-08T06:03:56;18.60;38.40
41644;DHT22;44236;48.098;11.582;2024-03-08T06:06:23;18.80;39.00
41644;DHT22;44236;48.098;11.582;2024-03-08T06:08:49;19.10;37.70
41644;DHT22;44236;48.098;11.582;2024-03-08T06:11:15;19.30;37.20
41644;DHT22;44236;48.098;11.582;2024-03-08T06:13:43;19.60;38.70
41644;DHT22;44236;48.098;11.582;2024-03-08T06:16:08;20.00;38.10
41644;DHT22;44236;48.098;11.582;2024-03-08T06:18:35;20.30;37.90
41644;DHT22;44236;48.098;11.582;2024-03-08T06:21:05;20.60;37.60
41644;DHT22;44236;48.098;11.582;2024-03-08T06:23:34;20.90;37.40
41644;DHT22;44236;48.098;11.582;2024-03-08T06:26:00;21.10;37.40
41644;DHT22;44236;48.098;11.582;2024-03-08T06:28:26;21.30;37.00
41644;DHT22;44236;48.098;11.582;2024-03-08T06:30:51;21.60;36.30
41644;DHT22;44236;48.098;11.582;2024-03-08T06:33:17;21.80;36.10
41644;DHT22;44236;48.098;11.582;2024-03-08T06:35:43;22.00;35.90
41644;DHT22;44236;48.098;11.582;2024-03-08T06:38:09;22.20;35.60
41644;DHT22;44236;48.098;11.582;2024-03-08T06:40:35;22.30;35.10
41644;DHT22;44236;48.098;11.582;2024-03-08T06:43:00;22.60;34.70
41644;DHT22;44236;48.098;11.582;2024-03-08T06:45:26;22.70;34.20
41644;DHT22;44236;48.098;11.582;2024-03-08T06:47:52;23.00;33.90
41644;DHT22;44236;48.098;11.582;2024-03-08T06:50:17;23.20;33.50
41644;DHT22;44236;48.098;11.582;2024-03-08T06:52:43;23.40;33.20
41644;DHT22;44236;48.098;11.582;2024-03-08T06:55:10;23.40;33.50
41644;DHT22;44236;48.098;11.582;2024-03-08T06:57:41;23.50;33.50
41644;DHT22;44236;48.098;11.582;2024-03-08T07:00:09;23.70;32.70
41644;DHT22;44236;48.098;11.582;2024-03-08T07:02:37;23.80;32.60
41644;DHT22;44236;48.098;11.582;2024-03-08T07:05:05;23.90;32.90
41644;DHT22;44236;48.098;11.582;2024-03-08T07:07:31;24.20;32.40
41644;DHT22;44236;48.098;11.582;2024-03-08T07:09:59;24.20;32.00
41644;DHT22;44236;48.098;11.582;2024-03-08T07:12:24;24.60;31.60
41644;DHT22;44236;48.098;11.582;2024-03-08T07:14:51;24.80;31.00
41644;DHT22;44236;48.098;11.582;2024-03-08T07:17:17;25.00;30.90
41644;DHT22;44236;48.098;11.582;2024-03-08T07:19:42;25.10;31.00
41644;DHT22;44236;48.098;11.582;2024-03-08T07:22:08;25.10;31.00
41644;DHT22;44236;48.098;11.582;2024-03-08T07:24:37;25.00;30.80
41644;DHT22;44236;48.098;11.582;2024-03-08T07:27:25;25.20;31.00
41644;DHT22;44236;48.098;11.582;2024-03-08T07:29:51;25.20;30.90
41644;DHT22;44236;48.098;11.582;2024-03-08T07:32:17;25.30;31.30
41644;DHT22;44236;48.098;11.582;2024-03-08T07:34:51;25.20;31.50
41644;DHT22;44236;48.098;11.582;2024-03-08T07:37:17;25.20;31.40
41644;DHT22;44236;48.098;11.582;2024-03-08T07:39:44;25.30;31.20
41644;DHT22;44236;48.098;11.582;2024-03-08T07:42:10;25.30;30.90
41644;DHT22;44236;48.098;11.582;2024-03-08T07:44:37;25.40;30.90
41644;DHT22;44236;48.098;11.582;2024-03-08T07:47:03;25.50;30.50
41644;DHT22;44236;48.098;11.582;2024-03-08T07:49:29;25.50;30.00
41644;DHT22;44236;48.098;11.582;2024-03-08T07:51:56;25.60;30.00
41644;DHT22;44236;48.098;11.582;2024-03-08T07:54:21;25.60;29.80
41644;DHT22;44236;48.098;11.582;2024-03-08T07:56:47;25.80;29.80
41644;DHT22;44236;48.098;11.582;2024-03-08T07:59:13;25.80;29.60
41644;DHT22;44236;48.098;11.582;2024-03-08T08:01:38;25.90;29.40
41644;DHT22;44236;48.098;11.582;2024-03-08T08:04:04;26.00;29.50
41644;DHT22;44236;48.098;11.582;2024-03-08T08:06:30;26.10;29.30
41644;DHT22;44236;48.098;11.582;2024-03-08T08:08:59;26.10;29.20
41644;DHT22;44236;48.098;11.582;2024-03-08T08:11:27;26.20;29.30
41644;DHT22;44236;48.098;11.582;2024-03-08T08:13:54;26.20;29.30
41644;DHT22;44236;48.098;11.582;2024-03-08T08:16:22;26.30;29.30
41644;DHT22;44236;48.098;11.582;2024-03-08T08:18:48;26.30;29.40
41644;DHT22;44236;48.098;11.582;2024-03-08T08:21:14;26.30;29.40
41644;DHT22;44236;48.098;11.582;2024-03-08T08:23:39;26.30;29.40
41644;DHT22;44236;48.098;11.582;2024-03-08T08:26:05;26.30;29.30
41644;DHT22;44236;48.098;11.582;2024-03-08T08:28:33;26.40;29.30
41644;DHT22;44236;48.098;11.582;2024-03-08T08:30:58;26.40;29.40
41644;DHT22;44236;48.098;11.582;2024-03-08T08:33:25;26.40;29.20
41644;DHT22;44236;48.098;11.582;2024-03-08T08:35:51;26.50;29.10
41644;DHT22;44236;48.098;11.582;2024-03-08T08:38:19;26.50;29.20
41644;DHT22;44236;48.098;11.582;2024-03-08T08:40:45;26.50;29.30
41644;DHT22;44236;48.098;11.582;2024-03-08T08:43:12;26.50;29.20
41644;DHT22;44236;48.098;11.582;2024-03-08T08:45:38;26.60;29.00
41644;DHT22;44236;48.098;11.582;2024-03-08T08:48:04;26.60;29.20
41644;DHT22;44236;48.098;11.582;2024-03-08T08:50:30;26.60;29.10
41644;DHT22;44236;48.098;11.582;2024-03-08T08:52:58;26.70;29.10
41644;DHT22;44236;48.098;11.582;2024-03-08T08:55:24;26.70;29.10
41644;DHT22;44236;48.098;11.582;2024-03-08T08:57:51;26.70;28.90
41644;DHT22;44236;48.098;11.582;2024-03-08T09:00:20;26.70;29.00
41644;DHT22;44236;48.098;11.582;2024-03-08T09:02:47;26.80;29.00
41644;DHT22;44236;48.098;11.582;2024-03-08T09:05:14;26.90;29.00
41644;DHT22;44236;48.098;11.582;2024-03-08T09:07:45;26.80;29.00
41644;DHT22;44236;48.098;11.582;2024-03-08T09:10:11;27.00;28.90
41644;DHT22;44236;48.098;11.582;2024-03-08T09:12:40;27.00;29.20
41644;DHT22;44236;48.098;11.582;2024-03-08T09:15:06;27.10;28.90
41644;DHT22;44236;48.098;11.582;2024-03-08T09:17:34;27.00;28.90
41644;DHT22;44236;48.098;11.582;2024-03-08T09:19:59;27.00;29.40
41644;DHT22;44236;48.098;11.582;2024-03-08T09:22:25;27.00;29.10
41644;DHT22;44236;48.098;11.582;2024-03-08T09:24:51;27.00;29.10
41644;DHT22;44236;48.098;11.582;2024-03-08T09:27:17;26.90;29.20
41644;DHT22;44236;48.098;11.582;2024-03-08T09:29:43;27.00;29.20
41644;DHT22;44236;48.098;11.582;2024-03-08T09:32:10;27.00;29.10
41644;DHT22;44236;48.098;11.582;2024-03-08T09:34:37;26.90;29.20
41644;DHT22;44236;48.098;11.582;2024-03-08T09:37:03;27.00;29.20
41644;DHT22;44236;48.098;11.582;2024-03-08T09:39:29;27.10;29.10
41644;DHT22;44236;48.098;11.582;2024-03-08T09:41:55;27.10;29.10
41644;DHT22;44236;48.098;11.582;2024-03-08T09:44:22;27.10;29.10
41644;DHT22;44236;48.098;11.582;2024-03-08T09:46:49;27.20;29.10
41644;DHT22;44236;48.098;11.582;2024-03-08T09:49:19;27.10;29.00
41644;DHT22;44236;48.098;11.582;2024-03-08T09:51:45;27.30;29.00
41644;DHT22;44236;48.098;11.582;2024-03-08T09:54:11;27.30;28.80
41644;DHT22;44236;48.098;11.582;2024-03-08T09:56:39;27.40;28.90
41644;DHT22;44236;48.098;11.582;2024-03-08T09:59:09;27.40;28.90
41644;DHT22;44236;48.098;11.582;2024-03-08T10:01:53;27.30;28.90
41644;DHT22;44236;48.098;11.582;2024-03-08T10:04:22;27.40;28.80
41644;DHT22;44236;48.098;11.582;2024-03-08T10:06:48;27.40;28.90
41644;DHT22;44236;48.098;11.582;2024-03-08T10:09:14;27.50;28.80
41644;DHT22;44236;48.098;11.582;2024-03-08T10:11:41;27.50;28.70
41644;DHT22;44236;48.098;11.582;2024-03-08T10:14:09;27.50;28.80
41644;DHT22;44236;48.098;11.582;2024-03-08T10:16:35;27.50;28.60
41644;DHT22;44236;48.098;11.582;2024-03-08T10:19:00;27.60;28.50
41644;DHT22;44236;48.098;11.582;2024-03-08T10:21:26;28.50;29.40
41644;DHT22;44236;48.098;11.582;2024-03-08T10:23:52;27.50;28.70
41644;DHT22;44236;48.098;11.582;2024-03-08T10:26:19;27.80;28.80
41644;DHT22;44236;48.098;11.582;2024-03-08T10:28:51;27.80;28.90
41644;DHT22;44236;48.098;11.582;2024-03-08T10:31:19;27.80;28.80
41644;DHT22;44236;48.098;11.582;2024-03-08T10:33:46;27.80;28.80
41644;DHT22;44236;48.098;11.582;2024-03-08T10:36:13;27.80;28.80
41644;DHT22;44236;48.098;11.582;2024-03-08T10:38:41;27.90;28.80
41644;DHT22;44236;48.098;11.582;2024-03-08T10:41:08;27.90;28.80
41644;DHT22;44236;48.098;11.582;2024-03-08T10:43:56;27.90;28.50
41644;DHT22;44236;48.098;11.582;2024-03-08T10:46:44;28.00;28.60
41644;DHT22;44236;48.098;11.582;2024-03-08T10:49:17;28.00;28.50
41644;DHT22;44236;48.098;11.582;2024-03-08T10:51:43;28.10;28.50
41644;DHT22;44236;48.098;11.582;2024-03-08T10:54:10;28.10;28.60
41644;DHT22;44236;48.098;11.582;2024-03-08T10:56:37;28.20;28.50
41644;DHT22;44236;48.098;11.582;2024-03-08T10:59:06;28.20;28.40
41644;DHT22;44236;48.098;11.582;2024-03-08T11:01:34;28.30;28.50
41644;DHT22;44236;48.098;11.582;2024-03-08T11:03:59;28.10;28.10
41644;DHT22;44236;48.098;11.582;2024-03-08T11:08:57;28.40;28.40
41644;DHT22;44236;48.098;11.582;2024-03-08T11:11:31;28.30;28.80
41644;DHT22;44236;48.098;11.582;2024-03-08T11:13:58;28.30;28.60
41644;DHT22;44236;48.098;11.582;2024-03-08T11:19:05;28.30;28.50
41644;DHT22;44236;48.098;11.582;2024-03-08T11:21:31;28.20;28.60
41644;DHT22;44236;48.098;11.582;2024-03-08T11:23:59;28.30;27.90
41644;DHT22;44236;48.098;11.582;2024-03-08T11:26:25;28.30;28.30
41644;DHT22;44236;48.098;11.582;2024-03-08T11:28:51;28.40;28.20
41644;DHT22;44236;48.098;11.582;2024-03-08T11:33:47;28.40;28.80
41644;DHT22;44236;48.098;11.582;2024-03-08T11:38:47;28.20;29.00
41644;DHT22;44236;48.098;11.582;2024-03-08T11:41:19;28.10;29.00
41644;DHT22;44236;48.098;11.582;2024-03-08T11:43:47;28.20;29.10
41644;DHT22;44236;48.098;11.582;2024-03-08T11:46:14;28.20;29.10
41644;DHT22;44236;48.098;11.582;2024-03-08T11:48:40;28.20;29.00
41644;DHT22;44236;48.098;11.582;2024-03-08T11:51:11;28.30;29.00
41644;DHT22;44236;48.098;11.582;2024-03-08T11:53:37;28.40;29.10
41644;DHT22;44236;48.098;11.582;2024-03-08T11:56:14;28.40;28.90
41644;DHT22;44236;48.098;11.582;2024-03-08T11:58:40;28.50;28.90
41644;DHT22;44236;48.098;11.582;2024-03-08T12:01:07;28.40;28.90
41644;DHT22;44236;48.098;11.582;2024-03-08T12:03:34;28.40;28.90
41644;DHT22;44236;48.098;11.582;2024-03-08T12:06:01;28.50;28.90
41644;DHT22;44236;48.098;11.582;2024-03-08T12:08:27;28.40;29.00
41644;DHT22;44236;48.098;11.582;2024-03-08T12:10:57;28.50;29.00
41644;DHT22;44236;48.098;11.582;2024-03-08T12:13:27;28.50;28.90
41644;DHT22;44236;48.098;11.582;2024-03-08T12:15:56;28.40;28.90
41644;DHT22;44236;48.098;11.582;2024-03-08T12:18:24;28.50;29.00
41644;DHT22;44236;48.098;11.582;2024-03-08T12:20:50;28.50;29.00
41644;DHT22;44236;48.098;11.582;2024-03-08T12:23:15;28.50;29.00
41644;DHT22;44236;48.098;11.582;2024-03-08T12:25:42;28.50;28.90
41644;DHT22;44236;48.098;11.582;2024-03-08T12:28:09;28.50;28.90
41644;DHT22;44236;48.098;11.582;2024-03-08T12:30:49;28.40;29.00
41644;DHT22;44236;48.098;11.582;2024-03-08T12:33:17;28.50;29.10
41644;DHT22;44236;48.098;11.582;2024-03-08T12:35:51;28.60;29.00
41644;DHT22;44236;48.098;11.582;2024-03-08T12:38:19;28.50;28.90
41644;DHT22;44236;48.098;11.582;2024-03-08T12:40:50;28.60;29.00
41644;DHT22;44236;48.098;11.582;2024-03-08T12:43:16;28.50;29.00
41644;DHT22;44236;48.098;11.582;2024-03-08T12:45:41;28.50;28.90
41644;DHT22;44236;48.098;11.582;2024-03-08T12:48:13;28.60;29.10
41644;DHT22;44236;48.098;11.582;2024-03-08T12:50:41;28.50;29.00
41644;DHT22;44236;48.098;11.582;2024-03-08T12:53:13;28.50;29.10
41644;DHT22;44236;48.098;11.582;2024-03-08T12:55:39;28.60;29.10
41644;DHT22;44236;48.098;11.582;2024-03-08T12:58:06;28.70;29.10
41644;DHT22;44236;48.098;11.582;2024-03-08T13:00:33;28.70;29.00
41644;DHT22;44236;48.098;11.582;2024-03-08T13:03:01;28.70;28.90
41644;DHT22;44236;48.098;11.582;2024-03-08T13:05:28;28.70;28.90
41644;DHT22;44236;48.098;11.582;2024-03-08T13:07:54;28.70;28.90
41644;DHT22;44236;48.098;11.582;2024-03-08T13:10:20;28.80;28.90
41644;DHT22;44236;48.098;11.582;2024-03-08T13:12:46;28.80;28.90
41644;DHT22;44236;48.098;11.582;2024-03-08T13:15:12;28.80;28.90
41644;DHT22;44236;48.098;11.582;2024-03-08T13:17:46;28.70;28.90
41644;DHT22;44236;48.098;11.582;2024-03-08T13:20:13;28.80;28.80
41644;DHT22;44236;48.098;11.582;2024-03-08T13:22:43;28.80;28.70
41644;DHT22;44236;48.098;11.582;2024-03-08T13:25:09;28.90;28.80
41644;DHT22;44236;48.098;11.582;2024-03-08T13:27:41;28.80;28.80
41644;DHT22;44236;48.098;11.582;2024-03-08T13:30:09;28.80;28.80
41644;DHT22;44236;48.098;11.582;2024-03-08T13:32:42;28.80;28.70
41644;DHT22;44236;48.098;11.582;2024-03-08T13:35:09;28.80;28.70
41644;DHT22;44236;48.098;11.582;2024-03-08T13:37:41;28.80;28.80
41644;DHT22;44236;48.098;11.582;2024-03-08T13:40:08;28.80;28.70
41644;DHT22;44236;48.098;11.582;2024-03-08T13:42:40;28.70;28.70
41644;DHT22;44236;48.098;11.582;2024-03-08T13:45:10;28.60;28.70
41644;DHT22;44236;48.098;11.582;2024-03-08T13:47:37;28.50;28.70
41644;DHT22;44236;48.098;11.582;2024-03-08T13:50:05;27.90;25.20
41644;DHT22;44236;48.098;11.582;2024-03-08T13:52:33;27.30;24.90
41644;DHT22;44236;48.098;11.582;2024-03-08T13:55:00;26.50;24.70
41644;DHT22;44236;48.098;11.582;2024-03-08T13:57:26;26.30;25.20
41644;DHT22;44236;48.098;11.582;2024-03-08T13:59:52;26.50;26.10
41644;DHT22;44236;48.098;11.582;2024-03-08T14:02:18;26.70;26.50
41644;DHT22;44236;48.098;11.582;2024-03-08T14:04:44;26.80;27.10
41644;DHT22;44236;48.098;11.582;2024-03-08T14:07:10;26.70;27.40
41644;DHT22;44236;48.098;11.582;2024-03-08T14:09:37;26.80;27.60
41644;DHT22;44236;48.098;11.582;2024-03-08T14:12:03;27.10;27.60
41644;DHT22;44236;48.098;11.582;2024-03-08T14:14:33;27.40;27.70
41644;DHT22;44236;48.098;11.582;2024-03-08T14:17:03;27.50;27.70
41644;DHT22;44236;48.098;11.582;2024-03-08T14:19:29;27.70;27.70
41644;DHT22;44236;48.098;11.582;2024-03-08T14:21:59;27.80;27.70
41644;DHT22;44236;48.098;11.582;2024-03-08T14:24:25;27.70;27.80
41644;DHT22;44236;48.098;11.582;2024-03-08T14:26:51;27.60;27.90
41644;DHT22;44236;48.098;11.582;2024-03-08T14:29:17;27.70;28.00
41644;DHT22;44236;48.098;11.582;2024-03-08T14:31:46;27.80;28.00
41644;DHT22;44236;48.098;11.582;2024-03-08T14:34:11;27.80;28.00
41644;DHT22;44236;48.098;11.582;2024-03-08T14:36:39;27.90;28.10
41644;DHT22;44236;48.098;11.582;2024-03-08T14:39:05;28.10;28.00
41644;DHT22;44236;48.098;11.582;2024-03-08T14:41:33;28.20;28.00
41644;DHT22;44236;48.098;11.582;2024-03-08T14:43:58;28.20;28.10
41644;DHT22;44236;48.098;11.582;2024-03-08T14:46:25;28.00;28.00
41644;DHT22;44236;48.098;11.582;2024-03-08T14:48:52;27.90;28.10
41644;DHT22;44236;48.098;11.582;2024-03-08T14:51:19;28.00;28.20
41644;DHT22;44236;48.098;11.582;2024-03-08T14:53:47;28.10;28.20
41644;DHT22;44236;48.098;11.582;2024-03-08T14:56:13;28.10;28.20
41644;DHT22;44236;48.098;11.582;2024-03-08T14:58:42;28.10;28.20
41644;DHT22;44236;48.098;11.582;2024-03-08T15:01:10;28.10;28.30
41644;DHT22;44236;48.098;11.582;2024-03-08T15:03:36;28.10;28.30
41644;DHT22;44236;48.098;11.582;2024-03-08T15:06:04;28.10;28.30
41644;DHT22;44236;48.098;11.582;2024-03-08T15:08:34;28.10;28.20
41644;DHT22;44236;48.098;11.582;2024-03-08T15:11:00;28.10;28.50
41644;DHT22;44236;48.098;11.582;2024-03-08T15:13:26;28.20;28.30
41644;DHT22;44236;48.098;11.582;2024-03-08T15:16:05;28.10;28.30
41644;DHT22;44236;48.098;11.582;2024-03-08T15:18:31;28.20;28.40
41644;DHT22;44236;48.098;11.582;2024-03-08T15:21:00;28.10;28.40
41644;DHT22;44236;48.098;11.582;2024-03-08T15:23:26;28.10;28.40
41644;DHT22;44236;48.098;11.582;2024-03-08T15:25:52;28.10;28.40